VOI1462 ZGZH-ZJYX
Flight info
| Callsign | VOI1462 |
|---|---|
| Flight time | N/A |
| Altitude | 24600 |
| Route | LBN W159 BHY R339 LH W71 AGTEL X165 WCF X163 DBA |
| Aircraft | A320/M-SDE3FGHIRWY/LB1 |
Departure
| Time | 2026-05-04 09:37 |
|---|---|
| Airport | Liuzhou Bailian Airport / Bailian Air Base (ZGZH) |
Arrival
| Time | N/A |
|---|---|
| Airport | ZJYX |
| Time | Latitude | Longitude | Altitude | Speed | Heading |
|---|---|---|---|---|---|
| 2026-05-04 09:20 | 24.20292 | 109.39889 | 317 ft | 0 kts | 66° |
| 2026-05-04 09:27 | 24.20290 | 109.39883 | 319 ft | 3 kts | 65° |
| 2026-05-04 09:27 | 24.20281 | 109.39862 | 319 ft | 3 kts | 66° |
| 2026-05-04 09:27 | 24.20275 | 109.39848 | 317 ft | 1 kts | 100° |
| 2026-05-04 09:28 | 24.20279 | 109.39835 | 314 ft | 2 kts | 100° |
| 2026-05-04 09:28 | 24.20281 | 109.39826 | 317 ft | 1 kts | 108° |
| 2026-05-04 09:28 | 24.20282 | 109.39823 | 317 ft | 0 kts | 103° |
| 2026-05-04 09:29 | 24.20283 | 109.39817 | 316 ft | 1 kts | 96° |
| 2026-05-04 09:29 | 24.20284 | 109.39808 | 317 ft | 1 kts | 65° |
| 2026-05-04 09:29 | 24.20279 | 109.39799 | 316 ft | 1 kts | 350° |
| 2026-05-04 09:29 | 24.20271 | 109.39802 | 314 ft | 1 kts | 347° |
| 2026-05-04 09:30 | 24.20263 | 109.39804 | 315 ft | 1 kts | 333° |
| 2026-05-04 09:30 | 24.20256 | 109.39808 | 316 ft | 1 kts | 335° |
| 2026-05-04 09:30 | 24.20255 | 109.39808 | 316 ft | 0 kts | 335° |
| 2026-05-04 09:31 | 24.20261 | 109.39805 | 316 ft | 5 kts | 335° |
| 2026-05-04 09:31 | 24.20338 | 109.39768 | 318 ft | 19 kts | 337° |
| 2026-05-04 09:31 | 24.20427 | 109.39688 | 318 ft | 15 kts | 270° |
| 2026-05-04 09:31 | 24.20383 | 109.39581 | 317 ft | 16 kts | 254° |
| 2026-05-04 09:32 | 24.20452 | 109.39506 | 317 ft | 16 kts | 338° |
| 2026-05-04 09:32 | 24.20552 | 109.39443 | 316 ft | 17 kts | 288° |
| 2026-05-04 09:34 | 24.21227 | 109.38924 | 318 ft | 26 kts | 336° |
| 2026-05-04 09:34 | 24.21393 | 109.38833 | 316 ft | 28 kts | 334° |
| 2026-05-04 09:34 | 24.21577 | 109.38739 | 315 ft | 30 kts | 334° |
| 2026-05-04 09:34 | 24.21752 | 109.38655 | 312 ft | 10 kts | 3° |
| 2026-05-04 09:35 | 24.21802 | 109.38650 | 312 ft | 4 kts | 289° |
| 2026-05-04 09:35 | 24.21782 | 109.38637 | 311 ft | 4 kts | 171° |
| 2026-05-04 09:35 | 24.21749 | 109.38652 | 312 ft | 7 kts | 156° |
| 2026-05-04 09:35 | 24.21605 | 109.38725 | 315 ft | 48 kts | 155° |
| 2026-05-04 09:37 | 24.14787 | 109.39989 | 2654 ft | 211 kts | 218° |
| 2026-05-04 09:37 | 24.13598 | 109.39006 | 3082 ft | 222 kts | 218° |
| 2026-05-04 09:38 | 24.12359 | 109.37985 | 3778 ft | 224 kts | 217° |
| 2026-05-04 09:38 | 24.11108 | 109.36958 | 4522 ft | 226 kts | 217° |
| 2026-05-04 09:38 | 24.09837 | 109.35922 | 5270 ft | 229 kts | 217° |
| 2026-05-04 09:38 | 24.08560 | 109.34882 | 6060 ft | 229 kts | 218° |
| 2026-05-04 09:39 | 24.07284 | 109.33843 | 6842 ft | 229 kts | 218° |
| 2026-05-04 09:39 | 24.06007 | 109.32805 | 7605 ft | 229 kts | 218° |
| 2026-05-04 09:39 | 24.04726 | 109.31769 | 8368 ft | 229 kts | 219° |
| 2026-05-04 09:39 | 24.03446 | 109.30735 | 9151 ft | 228 kts | 219° |
| 2026-05-04 09:40 | 24.02170 | 109.29701 | 9918 ft | 229 kts | 220° |
| 2026-05-04 09:40 | 24.00886 | 109.28660 | 10604 ft | 230 kts | 220° |
| 2026-05-04 09:40 | 23.99599 | 109.27618 | 11249 ft | 231 kts | 220° |
| 2026-05-04 09:40 | 23.98170 | 109.26714 | 11692 ft | 248 kts | 212° |
| 2026-05-04 09:41 | 23.96565 | 109.25811 | 11904 ft | 271 kts | 211° |
| 2026-05-04 09:42 | 23.81667 | 109.17594 | 13343 ft | 390 kts | 210° |
| 2026-05-04 09:43 | 23.79234 | 109.16260 | 13865 ft | 393 kts | 210° |
| 2026-05-04 09:43 | 23.76656 | 109.15202 | 14322 ft | 402 kts | 196° |
| 2026-05-04 09:43 | 23.73832 | 109.14980 | 14796 ft | 414 kts | 180° |
| 2026-05-04 09:43 | 23.70954 | 109.15336 | 15257 ft | 418 kts | 178° |
| 2026-05-04 09:44 | 23.68053 | 109.15728 | 15732 ft | 421 kts | 178° |
| 2026-05-04 09:44 | 23.65132 | 109.16128 | 16191 ft | 424 kts | 178° |
| 2026-05-04 09:44 | 23.62192 | 109.16528 | 16636 ft | 427 kts | 178° |
| 2026-05-04 09:46 | 23.41110 | 109.19316 | 19500 ft | 445 kts | 179° |
| 2026-05-04 09:46 | 23.38029 | 109.19723 | 19867 ft | 447 kts | 178° |
| 2026-05-04 09:46 | 23.34930 | 109.20134 | 20225 ft | 450 kts | 178° |
| 2026-05-04 09:47 | 23.31819 | 109.20544 | 20590 ft | 452 kts | 178° |
| 2026-05-04 09:47 | 23.28688 | 109.20955 | 20947 ft | 454 kts | 178° |
| 2026-05-04 09:49 | 23.06372 | 109.23886 | 23217 ft | 468 kts | 178° |
| 2026-05-04 09:49 | 23.03131 | 109.24312 | 23500 ft | 471 kts | 178° |
| 2026-05-04 09:49 | 22.99873 | 109.24739 | 23771 ft | 472 kts | 178° |
| 2026-05-04 09:51 | 22.80090 | 109.27332 | 24623 ft | 483 kts | 178° |
| 2026-05-04 09:51 | 22.76752 | 109.27773 | 24621 ft | 483 kts | 178° |
| 2026-05-04 09:51 | 22.73414 | 109.28211 | 24626 ft | 483 kts | 178° |
| 2026-05-04 09:51 | 22.70078 | 109.28645 | 24624 ft | 483 kts | 178° |
| 2026-05-04 09:52 | 22.66742 | 109.29078 | 24622 ft | 483 kts | 178° |
| 2026-05-04 09:52 | 22.63403 | 109.29514 | 24625 ft | 483 kts | 178° |
| 2026-05-04 09:52 | 22.60065 | 109.29953 | 24622 ft | 484 kts | 178° |
| 2026-05-04 09:52 | 22.56731 | 109.30394 | 24619 ft | 483 kts | 178° |
| 2026-05-04 09:53 | 22.53396 | 109.30834 | 24619 ft | 483 kts | 178° |
| 2026-05-04 09:53 | 22.50057 | 109.31274 | 24615 ft | 483 kts | 178° |
| 2026-05-04 09:53 | 22.46723 | 109.31712 | 24607 ft | 483 kts | 178° |
| 2026-05-04 09:53 | 22.43391 | 109.32151 | 24604 ft | 482 kts | 178° |
| 2026-05-04 09:54 | 22.40059 | 109.32593 | 24600 ft | 482 kts | 178° |
| 2026-05-04 09:54 | 22.36734 | 109.33035 | 24600 ft | 482 kts | 178° |
| 2026-05-04 09:54 | 22.33407 | 109.33475 | 24598 ft | 482 kts | 178° |
| 2026-05-04 09:54 | 22.30077 | 109.33914 | 24596 ft | 482 kts | 178° |
| 2026-05-04 09:55 | 22.26754 | 109.34351 | 24595 ft | 482 kts | 178° |
| 2026-05-04 09:55 | 22.23429 | 109.34785 | 24593 ft | 482 kts | 178° |
| 2026-05-04 09:55 | 22.20096 | 109.35215 | 24593 ft | 482 kts | 178° |
| 2026-05-04 09:55 | 22.16771 | 109.35641 | 24598 ft | 482 kts | 178° |
| 2026-05-04 09:56 | 22.13438 | 109.36068 | 24592 ft | 482 kts | 178° |
| 2026-05-04 09:56 | 22.10113 | 109.36498 | 24595 ft | 482 kts | 178° |
| 2026-05-04 09:56 | 22.06829 | 109.36926 | 24592 ft | 482 kts | 178° |
| 2026-05-04 09:56 | 22.03498 | 109.37361 | 24589 ft | 482 kts | 178° |
| 2026-05-04 09:57 | 22.00173 | 109.37798 | 24590 ft | 482 kts | 178° |
| 2026-05-04 09:57 | 21.96840 | 109.38235 | 24589 ft | 482 kts | 178° |
| 2026-05-04 09:57 | 21.93510 | 109.38667 | 24588 ft | 482 kts | 178° |
| 2026-05-04 09:57 | 21.90185 | 109.39095 | 24588 ft | 482 kts | 178° |
| 2026-05-04 09:58 | 21.86855 | 109.39520 | 24586 ft | 482 kts | 178° |
| 2026-05-04 09:58 | 21.83522 | 109.39945 | 24587 ft | 482 kts | 178° |
| 2026-05-04 09:58 | 21.80194 | 109.40372 | 24584 ft | 482 kts | 178° |
| 2026-05-04 10:00 | 21.57812 | 109.47062 | 24582 ft | 504 kts | 140° |
| 2026-05-04 10:00 | 21.55492 | 109.49900 | 24583 ft | 509 kts | 128° |
| 2026-05-04 10:02 | 21.43614 | 109.73382 | 24584 ft | 513 kts | 121° |
| 2026-05-04 10:04 | 21.31789 | 109.96992 | 24591 ft | 513 kts | 121° |
| 2026-05-04 10:04 | 21.30093 | 110.00362 | 24593 ft | 513 kts | 121° |
| 2026-05-04 10:04 | 21.28402 | 110.03728 | 24597 ft | 513 kts | 121° |
| 2026-05-04 10:04 | 21.26710 | 110.07099 | 24604 ft | 514 kts | 121° |
| 2026-05-04 10:05 | 21.25020 | 110.10469 | 24602 ft | 513 kts | 121° |
| 2026-05-04 10:05 | 21.23327 | 110.13840 | 24600 ft | 513 kts | 121° |
| 2026-05-04 10:05 | 21.21635 | 110.17201 | 24594 ft | 513 kts | 121° |
| 2026-05-04 10:05 | 21.19935 | 110.20571 | 24599 ft | 513 kts | 121° |
| 2026-05-04 10:06 | 21.18167 | 110.23880 | 24591 ft | 510 kts | 127° |
| 2026-05-04 10:06 | 21.15946 | 110.26802 | 24594 ft | 505 kts | 138° |
| 2026-05-04 10:06 | 21.13278 | 110.29205 | 24596 ft | 498 kts | 149° |
| 2026-05-04 10:08 | 20.93890 | 110.32227 | 24588 ft | 473 kts | 187° |
| 2026-05-04 10:08 | 20.90598 | 110.32010 | 24585 ft | 473 kts | 188° |
| 2026-05-04 10:08 | 20.87309 | 110.31789 | 24583 ft | 473 kts | 188° |
| 2026-05-04 10:08 | 20.84023 | 110.31566 | 24587 ft | 474 kts | 188° |
| 2026-05-04 10:09 | 20.80734 | 110.31347 | 24586 ft | 474 kts | 188° |
| 2026-05-04 10:09 | 20.77445 | 110.31131 | 24582 ft | 474 kts | 188° |
| 2026-05-04 10:09 | 20.74151 | 110.30916 | 24582 ft | 474 kts | 188° |
| 2026-05-04 10:09 | 20.70859 | 110.30700 | 24587 ft | 474 kts | 188° |
| 2026-05-04 10:10 | 20.67568 | 110.30482 | 24591 ft | 474 kts | 188° |
| 2026-05-04 10:10 | 20.64278 | 110.30265 | 24588 ft | 474 kts | 188° |
| 2026-05-04 10:10 | 20.60990 | 110.30051 | 24593 ft | 474 kts | 188° |
| 2026-05-04 10:10 | 20.57699 | 110.29838 | 24590 ft | 474 kts | 188° |
| 2026-05-04 10:11 | 20.54436 | 110.29797 | 24586 ft | 478 kts | 180° |
| 2026-05-04 10:11 | 20.51131 | 110.30333 | 24588 ft | 484 kts | 171° |
| 2026-05-04 10:11 | 20.47920 | 110.31482 | 24585 ft | 490 kts | 160° |
| 2026-05-04 10:11 | 20.44914 | 110.33236 | 24583 ft | 497 kts | 150° |
| 2026-05-04 10:12 | 20.42102 | 110.35392 | 24586 ft | 498 kts | 148° |
| 2026-05-04 10:12 | 20.39296 | 110.37559 | 24583 ft | 498 kts | 148° |
| 2026-05-04 10:12 | 20.36482 | 110.39718 | 24579 ft | 498 kts | 148° |
| 2026-05-04 10:12 | 20.33666 | 110.41870 | 24585 ft | 498 kts | 148° |
| 2026-05-04 10:13 | 20.30850 | 110.44019 | 24582 ft | 498 kts | 148° |
| 2026-05-04 10:13 | 20.28046 | 110.46160 | 24583 ft | 498 kts | 148° |
| 2026-05-04 10:13 | 20.25268 | 110.48280 | 24579 ft | 498 kts | 148° |
| 2026-05-04 10:13 | 20.22450 | 110.50429 | 24580 ft | 498 kts | 148° |
| 2026-05-04 10:14 | 20.19632 | 110.52576 | 24579 ft | 498 kts | 148° |
| 2026-05-04 10:14 | 20.16812 | 110.54725 | 24575 ft | 498 kts | 148° |
| 2026-05-04 10:16 | 19.97114 | 110.69752 | 24572 ft | 498 kts | 148° |
| 2026-05-04 10:16 | 19.94300 | 110.71896 | 24574 ft | 497 kts | 148° |
| 2026-05-04 10:16 | 19.91376 | 110.73818 | 24573 ft | 492 kts | 158° |
| 2026-05-04 10:16 | 19.88208 | 110.75117 | 24575 ft | 486 kts | 168° |
| 2026-05-04 10:17 | 19.84909 | 110.75760 | 24572 ft | 479 kts | 179° |
| 2026-05-04 10:17 | 19.81600 | 110.75755 | 24575 ft | 474 kts | 189° |
| 2026-05-04 10:19 | 19.60765 | 110.66535 | 24565 ft | 465 kts | 208° |
| 2026-05-04 10:19 | 19.57842 | 110.65067 | 24562 ft | 466 kts | 208° |
| 2026-05-04 10:19 | 19.54912 | 110.63597 | 24566 ft | 466 kts | 208° |
| 2026-05-04 10:19 | 19.51982 | 110.62124 | 24562 ft | 466 kts | 208° |
| 2026-05-04 10:20 | 19.49048 | 110.60650 | 24562 ft | 467 kts | 208° |
| 2026-05-04 10:20 | 19.46111 | 110.59175 | 24562 ft | 467 kts | 208° |
| 2026-05-04 10:20 | 19.43217 | 110.57722 | 24564 ft | 467 kts | 208° |
| 2026-05-04 10:20 | 19.40275 | 110.56245 | 24562 ft | 467 kts | 208° |
| 2026-05-04 10:21 | 19.37338 | 110.54771 | 24562 ft | 468 kts | 208° |
| 2026-05-04 10:21 | 19.34398 | 110.53300 | 24565 ft | 468 kts | 208° |
| 2026-05-04 10:21 | 19.31454 | 110.51829 | 24568 ft | 468 kts | 208° |
| 2026-05-04 10:21 | 19.28517 | 110.50359 | 24569 ft | 468 kts | 208° |
| 2026-05-04 10:22 | 19.22558 | 110.47589 | 24562 ft | 471 kts | 199° |
| 2026-05-04 10:22 | 19.19322 | 110.46954 | 24563 ft | 476 kts | 187° |
| 2026-05-04 10:22 | 19.15995 | 110.47077 | 24562 ft | 482 kts | 174° |
| 2026-05-04 10:23 | 19.12734 | 110.47976 | 24564 ft | 488 kts | 162° |
| 2026-05-04 10:23 | 19.09698 | 110.49614 | 24559 ft | 494 kts | 149° |
| 2026-05-04 10:25 | 18.90652 | 110.65328 | 24560 ft | 496 kts | 145° |
| 2026-05-04 10:25 | 18.88849 | 110.66818 | 24561 ft | 496 kts | 145° |
| 2026-05-04 10:25 | 18.86134 | 110.69063 | 24564 ft | 496 kts | 145° |
| 2026-05-04 10:25 | 18.83420 | 110.71308 | 24564 ft | 496 kts | 145° |
| 2026-05-04 10:26 | 18.80704 | 110.73553 | 24571 ft | 496 kts | 145° |
| 2026-05-04 10:26 | 18.77988 | 110.75793 | 24567 ft | 495 kts | 145° |
| 2026-05-04 10:26 | 18.75272 | 110.78032 | 24576 ft | 495 kts | 145° |
| 2026-05-04 10:26 | 18.72560 | 110.80271 | 24570 ft | 495 kts | 145° |
| 2026-05-04 10:27 | 18.69853 | 110.82510 | 24575 ft | 495 kts | 145° |
| 2026-05-04 10:27 | 18.67146 | 110.84751 | 24579 ft | 494 kts | 145° |
| 2026-05-04 10:27 | 18.64439 | 110.86985 | 24571 ft | 494 kts | 145° |
| 2026-05-04 10:27 | 18.61729 | 110.89216 | 24569 ft | 494 kts | 145° |
| 2026-05-04 10:28 | 18.59020 | 110.91443 | 24569 ft | 494 kts | 145° |
| 2026-05-04 10:28 | 18.56310 | 110.93671 | 24569 ft | 494 kts | 145° |
| 2026-05-04 10:28 | 18.53598 | 110.95900 | 24568 ft | 494 kts | 145° |
| 2026-05-04 10:28 | 18.50890 | 110.98124 | 24564 ft | 494 kts | 145° |
| 2026-05-04 10:29 | 18.48181 | 111.00350 | 24564 ft | 494 kts | 145° |
| 2026-05-04 10:29 | 18.45477 | 111.02574 | 24562 ft | 494 kts | 145° |
| 2026-05-04 10:29 | 18.42769 | 111.04800 | 24563 ft | 493 kts | 145° |
| 2026-05-04 10:29 | 18.40063 | 111.07023 | 24559 ft | 493 kts | 145° |
| 2026-05-04 10:30 | 18.37361 | 111.09246 | 24560 ft | 493 kts | 145° |
| 2026-05-04 10:30 | 18.34654 | 111.11472 | 24565 ft | 493 kts | 145° |
| 2026-05-04 10:30 | 18.31953 | 111.13691 | 24563 ft | 493 kts | 145° |
| 2026-05-04 10:30 | 18.29248 | 111.15910 | 24560 ft | 493 kts | 145° |
| 2026-05-04 10:31 | 18.26542 | 111.18126 | 24559 ft | 493 kts | 145° |
| 2026-05-04 10:31 | 18.23836 | 111.20339 | 24556 ft | 493 kts | 145° |
| 2026-05-04 10:32 | 18.07589 | 111.33635 | 24339 ft | 500 kts | 144° |
| 2026-05-04 10:33 | 18.04845 | 111.35873 | 24123 ft | 500 kts | 144° |
| 2026-05-04 10:33 | 18.02101 | 111.38112 | 23903 ft | 499 kts | 144° |
| 2026-05-04 10:33 | 17.99401 | 111.40315 | 23687 ft | 497 kts | 144° |
| 2026-05-04 10:33 | 17.96679 | 111.42536 | 23462 ft | 495 kts | 144° |
| 2026-05-04 10:34 | 17.93964 | 111.44752 | 23199 ft | 493 kts | 144° |
| 2026-05-04 10:34 | 17.91260 | 111.46962 | 22942 ft | 491 kts | 144° |
| 2026-05-04 10:34 | 17.88572 | 111.49163 | 22686 ft | 489 kts | 144° |
| 2026-05-04 10:34 | 17.85890 | 111.51356 | 22433 ft | 487 kts | 144° |
| 2026-05-04 10:35 | 17.83217 | 111.53530 | 22183 ft | 485 kts | 144° |
| 2026-05-04 10:35 | 17.80548 | 111.55697 | 21928 ft | 484 kts | 144° |
| 2026-05-04 10:35 | 17.77894 | 111.57854 | 21682 ft | 482 kts | 144° |
| 2026-05-04 10:35 | 17.75250 | 111.60002 | 21436 ft | 480 kts | 144° |
| 2026-05-04 10:36 | 17.72619 | 111.62141 | 21193 ft | 478 kts | 144° |
| 2026-05-04 10:36 | 17.69995 | 111.64274 | 20954 ft | 476 kts | 144° |
| 2026-05-04 10:36 | 17.67384 | 111.66400 | 20719 ft | 474 kts | 144° |
| 2026-05-04 10:36 | 17.64782 | 111.68518 | 20476 ft | 473 kts | 144° |
| 2026-05-04 10:37 | 17.62187 | 111.70626 | 20239 ft | 471 kts | 144° |
| 2026-05-04 10:37 | 17.59600 | 111.72722 | 20008 ft | 469 kts | 144° |
| 2026-05-04 10:37 | 17.57034 | 111.74798 | 19244 ft | 465 kts | 144° |
| 2026-05-04 10:37 | 17.54468 | 111.76871 | 18309 ft | 465 kts | 144° |
| 2026-05-04 10:39 | 17.40159 | 111.88482 | 13174 ft | 408 kts | 143° |
| 2026-05-04 10:39 | 17.37942 | 111.90272 | 12469 ft | 397 kts | 143° |
| 2026-05-04 10:39 | 17.35812 | 111.91991 | 11799 ft | 387 kts | 143° |
| 2026-05-04 10:40 | 17.33674 | 111.93716 | 11165 ft | 378 kts | 143° |
| 2026-05-04 10:40 | 17.31640 | 111.95356 | 11019 ft | 361 kts | 143° |
| 2026-05-04 10:40 | 17.29720 | 111.96904 | 10899 ft | 346 kts | 143° |
| 2026-05-04 10:40 | 17.27853 | 111.98413 | 10782 ft | 333 kts | 142° |
| 2026-05-04 10:41 | 17.26054 | 111.99869 | 10670 ft | 321 kts | 142° |
| 2026-05-04 10:41 | 17.24315 | 112.01275 | 10546 ft | 311 kts | 142° |
| 2026-05-04 10:41 | 17.22622 | 112.02639 | 10339 ft | 304 kts | 142° |
| 2026-05-04 10:41 | 17.20960 | 112.03981 | 10109 ft | 300 kts | 142° |
| 2026-05-04 10:42 | 17.19324 | 112.05306 | 9936 ft | 296 kts | 142° |
| 2026-05-04 10:42 | 17.17695 | 112.06623 | 9818 ft | 296 kts | 142° |
| 2026-05-04 10:42 | 17.16068 | 112.07935 | 9696 ft | 295 kts | 142° |
| 2026-05-04 10:42 | 17.14442 | 112.09246 | 9564 ft | 295 kts | 142° |
| 2026-05-04 10:43 | 17.12820 | 112.10552 | 9375 ft | 295 kts | 142° |
| 2026-05-04 10:44 | 17.01601 | 112.19587 | 6733 ft | 282 kts | 142° |
| 2026-05-04 10:45 | 16.99999 | 112.20737 | 6338 ft | 278 kts | 154° |
| 2026-05-04 10:45 | 16.98160 | 112.21357 | 5949 ft | 280 kts | 172° |
| 2026-05-04 10:45 | 16.96223 | 112.21330 | 5635 ft | 279 kts | 190° |
| 2026-05-04 10:45 | 16.94382 | 112.20719 | 5333 ft | 277 kts | 200° |
| 2026-05-04 10:46 | 16.92582 | 112.20006 | 5032 ft | 276 kts | 200° |
| 2026-05-04 10:46 | 16.90791 | 112.19303 | 4733 ft | 275 kts | 200° |
| 2026-05-04 10:46 | 16.89005 | 112.18605 | 4427 ft | 273 kts | 199° |
| 2026-05-04 10:46 | 16.87232 | 112.17913 | 4127 ft | 271 kts | 199° |
| 2026-05-04 10:47 | 16.85472 | 112.17223 | 3832 ft | 269 kts | 199° |
| 2026-05-04 10:47 | 16.83723 | 112.16534 | 3548 ft | 267 kts | 200° |
| 2026-05-04 10:47 | 16.82020 | 112.15863 | 3452 ft | 257 kts | 199° |
| 2026-05-04 10:47 | 16.80377 | 112.15218 | 3341 ft | 248 kts | 199° |
| 2026-05-04 10:49 | 16.71270 | 112.18128 | 2303 ft | 213 kts | 134° |
| 2026-05-04 10:49 | 16.70451 | 112.19382 | 2135 ft | 211 kts | 104° |
| 2026-05-04 10:50 | 16.70502 | 112.20888 | 2046 ft | 212 kts | 68° |
| 2026-05-04 10:51 | 16.76501 | 112.27375 | 1780 ft | 145 kts | 46° |
| 2026-05-04 10:52 | 16.77212 | 112.28114 | 1565 ft | 143 kts | 46° |
| 2026-05-04 10:52 | 16.77914 | 112.28843 | 1362 ft | 142 kts | 46° |
| 2026-05-04 10:52 | 16.78610 | 112.29565 | 1172 ft | 141 kts | 46° |
| 2026-05-04 10:54 | 16.83152 | 112.34279 | 32 ft | 32 kts | 45° |
| 2026-05-04 10:54 | 16.83239 | 112.34323 | 33 ft | 11 kts | 319° |